sensor_id;sensor_type;location;lat;lon;timestamp;P1;durP1;ratioP1;P2;durP2;ratioP2
14698;SDS011;7439;50.804;4.602;2023-03-11T00:02:19;65.10;;;61.27;;
14698;SDS011;7439;50.804;4.602;2023-03-11T00:04:47;61.60;;;58.23;;
14698;SDS011;7439;50.804;4.602;2023-03-11T00:07:14;58.90;;;55.73;;
14698;SDS011;7439;50.804;4.602;2023-03-11T00:09:41;54.43;;;51.60;;
14698;SDS011;7439;50.804;4.602;2023-03-11T00:12:09;49.73;;;46.97;;
14698;SDS011;7439;50.804;4.602;2023-03-11T00:14:38;48.67;;;45.83;;
14698;SDS011;7439;50.804;4.602;2023-03-11T00:17:05;42.33;;;39.87;;
14698;SDS011;7439;50.804;4.602;2023-03-11T00:19:33;42.27;;;39.80;;
14698;SDS011;7439;50.804;4.602;2023-03-11T00:22:00;41.73;;;39.53;;
14698;SDS011;7439;50.804;4.602;2023-03-11T00:24:28;42.67;;;39.93;;
14698;SDS011;7439;50.804;4.602;2023-03-11T00:26:56;39.03;;;36.77;;
14698;SDS011;7439;50.804;4.602;2023-03-11T00:29:23;39.33;;;36.43;;
14698;SDS011;7439;50.804;4.602;2023-03-11T00:31:52;36.87;;;33.80;;
14698;SDS011;7439;50.804;4.602;2023-03-11T00:34:19;30.13;;;28.13;;
14698;SDS011;7439;50.804;4.602;2023-03-11T00:36:47;27.10;;;25.00;;
14698;SDS011;7439;50.804;4.602;2023-03-11T00:39:14;25.77;;;23.77;;
14698;SDS011;7439;50.804;4.602;2023-03-11T00:41:42;25.50;;;23.50;;
14698;SDS011;7439;50.804;4.602;2023-03-11T00:44:09;22.50;;;20.67;;
14698;SDS011;7439;50.804;4.602;2023-03-11T00:46:37;22.13;;;20.67;;
14698;SDS011;7439;50.804;4.602;2023-03-11T00:49:05;18.60;;;16.77;;
14698;SDS011;7439;50.804;4.602;2023-03-11T00:51:33;19.27;;;17.77;;
14698;SDS011;7439;50.804;4.602;2023-03-11T00:54:01;18.70;;;17.10;;
14698;SDS011;7439;50.804;4.602;2023-03-11T00:56:28;17.53;;;16.53;;
14698;SDS011;7439;50.804;4.602;2023-03-11T00:58:55;17.13;;;15.53;;
14698;SDS011;7439;50.804;4.602;2023-03-11T01:01:26;18.13;;;16.37;;
14698;SDS011;7439;50.804;4.602;2023-03-11T01:03:53;14.80;;;13.43;;
14698;SDS011;7439;50.804;4.602;2023-03-11T01:06:22;15.20;;;14.00;;
14698;SDS011;7439;50.804;4.602;2023-03-11T01:08:50;15.77;;;14.43;;
14698;SDS011;7439;50.804;4.602;2023-03-11T01:11:17;19.53;;;13.43;;
14698;SDS011;7439;50.804;4.602;2023-03-11T01:13:44;15.40;;;13.93;;
14698;SDS011;7439;50.804;4.602;2023-03-11T01:16:12;14.87;;;13.47;;
14698;SDS011;7439;50.804;4.602;2023-03-11T01:18:39;14.00;;;12.87;;
14698;SDS011;7439;50.804;4.602;2023-03-11T01:21:07;14.53;;;13.03;;
14698;SDS011;7439;50.804;4.602;2023-03-11T01:23:35;14.10;;;12.63;;
14698;SDS011;7439;50.804;4.602;2023-03-11T01:26:03;12.90;;;11.97;;
14698;SDS011;7439;50.804;4.602;2023-03-11T01:28:31;14.30;;;13.20;;
14698;SDS011;7439;50.804;4.602;2023-03-11T01:30:58;13.13;;;11.97;;
14698;SDS011;7439;50.804;4.602;2023-03-11T01:33:28;13.93;;;12.90;;
14698;SDS011;7439;50.804;4.602;2023-03-11T01:35:56;14.23;;;12.33;;
14698;SDS011;7439;50.804;4.602;2023-03-11T01:38:24;13.13;;;10.67;;
14698;SDS011;7439;50.804;4.602;2023-03-11T01:40:52;12.20;;;9.97;;
14698;SDS011;7439;50.804;4.602;2023-03-11T01:43:38;11.53;;;10.20;;
14698;SDS011;7439;50.804;4.602;2023-03-11T01:46:10;12.67;;;11.10;;
14698;SDS011;7439;50.804;4.602;2023-03-11T01:48:38;11.63;;;10.83;;
14698;SDS011;7439;50.804;4.602;2023-03-11T01:51:06;22.40;;;10.43;;
14698;SDS011;7439;50.804;4.602;2023-03-11T01:53:34;12.53;;;10.47;;
14698;SDS011;7439;50.804;4.602;2023-03-11T01:56:06;14.20;;;10.03;;
14698;SDS011;7439;50.804;4.602;2023-03-11T01:58:34;11.60;;;10.23;;
14698;SDS011;7439;50.804;4.602;2023-03-11T02:01:02;11.97;;;10.50;;
14698;SDS011;7439;50.804;4.602;2023-03-11T02:03:31;11.03;;;9.77;;
14698;SDS011;7439;50.804;4.602;2023-03-11T02:05:59;13.27;;;10.43;;
14698;SDS011;7439;50.804;4.602;2023-03-11T02:08:29;10.50;;;9.63;;
14698;SDS011;7439;50.804;4.602;2023-03-11T02:11:01;10.93;;;9.97;;
14698;SDS011;7439;50.804;4.602;2023-03-11T02:13:31;11.70;;;10.60;;
14698;SDS011;7439;50.804;4.602;2023-03-11T02:15:59;13.97;;;10.43;;
14698;SDS011;7439;50.804;4.602;2023-03-11T02:18:27;11.10;;;10.00;;
14698;SDS011;7439;50.804;4.602;2023-03-11T02:20:57;13.87;;;10.87;;
14698;SDS011;7439;50.804;4.602;2023-03-11T02:23:28;13.63;;;10.07;;
14698;SDS011;7439;50.804;4.602;2023-03-11T02:26:00;13.13;;;10.50;;
14698;SDS011;7439;50.804;4.602;2023-03-11T02:28:35;13.43;;;10.97;;
14698;SDS011;7439;50.804;4.602;2023-03-11T02:31:06;14.47;;;10.70;;
14698;SDS011;7439;50.804;4.602;2023-03-11T02:33:34;12.97;;;10.27;;
14698;SDS011;7439;50.804;4.602;2023-03-11T02:36:03;13.07;;;10.17;;
14698;SDS011;7439;50.804;4.602;2023-03-11T02:38:33;13.80;;;10.53;;
14698;SDS011;7439;50.804;4.602;2023-03-11T02:41:06;11.77;;;10.67;;
14698;SDS011;7439;50.804;4.602;2023-03-11T02:43:36;16.47;;;11.60;;
14698;SDS011;7439;50.804;4.602;2023-03-11T02:46:05;14.27;;;11.43;;
14698;SDS011;7439;50.804;4.602;2023-03-11T02:48:34;11.60;;;10.40;;
14698;SDS011;7439;50.804;4.602;2023-03-11T02:51:02;19.90;;;11.70;;
14698;SDS011;7439;50.804;4.602;2023-03-11T02:53:31;14.50;;;10.70;;
14698;SDS011;7439;50.804;4.602;2023-03-11T02:56:04;14.53;;;12.43;;
14698;SDS011;7439;50.804;4.602;2023-03-11T02:58:31;13.30;;;11.13;;
14698;SDS011;7439;50.804;4.602;2023-03-11T03:01:00;12.43;;;11.13;;
14698;SDS011;7439;50.804;4.602;2023-03-11T03:03:27;13.47;;;11.37;;
14698;SDS011;7439;50.804;4.602;2023-03-11T03:05:55;14.53;;;11.40;;
14698;SDS011;7439;50.804;4.602;2023-03-11T03:08:22;13.70;;;12.40;;
14698;SDS011;7439;50.804;4.602;2023-03-11T03:10:50;22.20;;;11.90;;
14698;SDS011;7439;50.804;4.602;2023-03-11T03:13:17;12.67;;;11.53;;
14698;SDS011;7439;50.804;4.602;2023-03-11T03:15:45;12.50;;;11.07;;
14698;SDS011;7439;50.804;4.602;2023-03-11T03:18:14;11.97;;;10.40;;
14698;SDS011;7439;50.804;4.602;2023-03-11T03:20:42;15.53;;;11.57;;
14698;SDS011;7439;50.804;4.602;2023-03-11T03:23:09;11.93;;;10.70;;
14698;SDS011;7439;50.804;4.602;2023-03-11T03:25:37;11.57;;;10.43;;
14698;SDS011;7439;50.804;4.602;2023-03-11T03:28:07;11.13;;;10.13;;
14698;SDS011;7439;50.804;4.602;2023-03-11T03:30:35;11.70;;;10.50;;
14698;SDS011;7439;50.804;4.602;2023-03-11T03:33:03;13.30;;;11.93;;
14698;SDS011;7439;50.804;4.602;2023-03-11T03:35:32;12.97;;;9.73;;
14698;SDS011;7439;50.804;4.602;2023-03-11T03:38:00;14.73;;;10.57;;
14698;SDS011;7439;50.804;4.602;2023-03-11T03:40:27;12.17;;;10.00;;
14698;SDS011;7439;50.804;4.602;2023-03-11T03:42:55;11.33;;;10.17;;
14698;SDS011;7439;50.804;4.602;2023-03-11T03:45:22;13.57;;;10.13;;
14698;SDS011;7439;50.804;4.602;2023-03-11T03:47:50;12.47;;;10.73;;
14698;SDS011;7439;50.804;4.602;2023-03-11T03:50:17;12.70;;;10.60;;
14698;SDS011;7439;50.804;4.602;2023-03-11T03:52:46;12.10;;;11.13;;
14698;SDS011;7439;50.804;4.602;2023-03-11T03:55:13;14.20;;;11.47;;
14698;SDS011;7439;50.804;4.602;2023-03-11T03:57:44;13.73;;;11.53;;
14698;SDS011;7439;50.804;4.602;2023-03-11T04:00:11;15.10;;;11.07;;
14698;SDS011;7439;50.804;4.602;2023-03-11T04:02:39;18.47;;;10.83;;
14698;SDS011;7439;50.804;4.602;2023-03-11T04:05:08;14.57;;;10.47;;
14698;SDS011;7439;50.804;4.602;2023-03-11T04:07:35;16.57;;;10.83;;
14698;SDS011;7439;50.804;4.602;2023-03-11T04:10:05;17.87;;;10.37;;
14698;SDS011;7439;50.804;4.602;2023-03-11T04:12:32;19.83;;;10.60;;
14698;SDS011;7439;50.804;4.602;2023-03-11T04:15:00;14.23;;;10.03;;
14698;SDS011;7439;50.804;4.602;2023-03-11T04:17:27;11.03;;;9.50;;
14698;SDS011;7439;50.804;4.602;2023-03-11T04:19:54;11.90;;;10.77;;
14698;SDS011;7439;50.804;4.602;2023-03-11T04:22:22;10.70;;;9.53;;
14698;SDS011;7439;50.804;4.602;2023-03-11T04:24:49;12.67;;;11.13;;
14698;SDS011;7439;50.804;4.602;2023-03-11T04:27:20;14.07;;;10.63;;
14698;SDS011;7439;50.804;4.602;2023-03-11T04:29:48;12.07;;;10.97;;
14698;SDS011;7439;50.804;4.602;2023-03-11T04:32:15;13.27;;;10.93;;
14698;SDS011;7439;50.804;4.602;2023-03-11T04:34:43;12.17;;;10.93;;
14698;SDS011;7439;50.804;4.602;2023-03-11T04:37:10;17.83;;;10.87;;
14698;SDS011;7439;50.804;4.602;2023-03-11T04:39:38;10.37;;;9.27;;
14698;SDS011;7439;50.804;4.602;2023-03-11T04:42:05;15.13;;;9.60;;
14698;SDS011;7439;50.804;4.602;2023-03-11T04:44:35;15.67;;;10.03;;
14698;SDS011;7439;50.804;4.602;2023-03-11T04:47:02;13.53;;;9.87;;
14698;SDS011;7439;50.804;4.602;2023-03-11T04:49:30;14.40;;;10.07;;
14698;SDS011;7439;50.804;4.602;2023-03-11T04:51:57;15.63;;;11.73;;
14698;SDS011;7439;50.804;4.602;2023-03-11T04:54:24;13.73;;;10.23;;
14698;SDS011;7439;50.804;4.602;2023-03-11T04:56:52;12.77;;;10.53;;
14698;SDS011;7439;50.804;4.602;2023-03-11T04:59:19;14.80;;;10.40;;
14698;SDS011;7439;50.804;4.602;2023-03-11T05:01:48;14.20;;;10.83;;
14698;SDS011;7439;50.804;4.602;2023-03-11T05:04:17;13.70;;;10.37;;
14698;SDS011;7439;50.804;4.602;2023-03-11T05:06:45;17.50;;;11.97;;
14698;SDS011;7439;50.804;4.602;2023-03-11T05:09:15;32.87;;;15.87;;
14698;SDS011;7439;50.804;4.602;2023-03-11T05:11:42;35.37;;;17.33;;
14698;SDS011;7439;50.804;4.602;2023-03-11T05:14:10;27.90;;;18.27;;
14698;SDS011;7439;50.804;4.602;2023-03-11T05:16:37;26.47;;;16.40;;
14698;SDS011;7439;50.804;4.602;2023-03-11T05:19:06;12.90;;;11.47;;
14698;SDS011;7439;50.804;4.602;2023-03-11T05:21:50;17.77;;;13.73;;
14698;SDS011;7439;50.804;4.602;2023-03-11T05:24:21;28.13;;;16.80;;
14698;SDS011;7439;50.804;4.602;2023-03-11T05:26:49;28.70;;;17.83;;
14698;SDS011;7439;50.804;4.602;2023-03-11T05:29:17;25.27;;;14.47;;
14698;SDS011;7439;50.804;4.602;2023-03-11T05:31:47;21.50;;;14.93;;
14698;SDS011;7439;50.804;4.602;2023-03-11T05:34:16;21.07;;;14.33;;
14698;SDS011;7439;50.804;4.602;2023-03-11T05:36:46;33.47;;;15.83;;
14698;SDS011;7439;50.804;4.602;2023-03-11T05:39:14;27.27;;;16.87;;
14698;SDS011;7439;50.804;4.602;2023-03-11T05:41:42;21.87;;;15.33;;
14698;SDS011;7439;50.804;4.602;2023-03-11T05:44:09;31.10;;;19.40;;
14698;SDS011;7439;50.804;4.602;2023-03-11T05:46:36;19.20;;;14.90;;
14698;SDS011;7439;50.804;4.602;2023-03-11T05:49:04;26.93;;;15.20;;
14698;SDS011;7439;50.804;4.602;2023-03-11T05:51:33;15.67;;;12.27;;
14698;SDS011;7439;50.804;4.602;2023-03-11T05:54:01;20.47;;;10.10;;
14698;SDS011;7439;50.804;4.602;2023-03-11T05:56:31;18.43;;;10.30;;
14698;SDS011;7439;50.804;4.602;2023-03-11T05:58:58;21.33;;;10.77;;
14698;SDS011;7439;50.804;4.602;2023-03-11T06:01:26;16.30;;;12.07;;
14698;SDS011;7439;50.804;4.602;2023-03-11T06:03:53;21.40;;;12.67;;
14698;SDS011;7439;50.804;4.602;2023-03-11T06:06:21;23.93;;;13.73;;
14698;SDS011;7439;50.804;4.602;2023-03-11T06:08:49;29.03;;;15.57;;
14698;SDS011;7439;50.804;4.602;2023-03-11T06:11:20;21.03;;;13.50;;
14698;SDS011;7439;50.804;4.602;2023-03-11T06:13:51;20.00;;;13.77;;
14698;SDS011;7439;50.804;4.602;2023-03-11T06:16:19;18.57;;;12.60;;
14698;SDS011;7439;50.804;4.602;2023-03-11T06:18:49;27.60;;;14.97;;
14698;SDS011;7439;50.804;4.602;2023-03-11T06:21:17;17.70;;;13.20;;
14698;SDS011;7439;50.804;4.602;2023-03-11T06:23:45;16.53;;;12.97;;
14698;SDS011;7439;50.804;4.602;2023-03-11T06:26:15;20.80;;;11.40;;
14698;SDS011;7439;50.804;4.602;2023-03-11T06:28:42;23.90;;;15.03;;
14698;SDS011;7439;50.804;4.602;2023-03-11T06:31:11;19.10;;;14.23;;
14698;SDS011;7439;50.804;4.602;2023-03-11T06:33:40;21.23;;;13.50;;
14698;SDS011;7439;50.804;4.602;2023-03-11T06:36:09;16.83;;;12.60;;
14698;SDS011;7439;50.804;4.602;2023-03-11T06:38:36;24.70;;;14.33;;
14698;SDS011;7439;50.804;4.602;2023-03-11T06:41:04;18.73;;;13.80;;
14698;SDS011;7439;50.804;4.602;2023-03-11T06:43:33;17.23;;;12.67;;
14698;SDS011;7439;50.804;4.602;2023-03-11T06:46:04;28.43;;;18.23;;
14698;SDS011;7439;50.804;4.602;2023-03-11T06:48:34;38.00;;;21.37;;
14698;SDS011;7439;50.804;4.602;2023-03-11T06:51:01;32.43;;;20.90;;
14698;SDS011;7439;50.804;4.602;2023-03-11T06:53:28;21.33;;;14.17;;
14698;SDS011;7439;50.804;4.602;2023-03-11T06:55:56;24.27;;;16.73;;
14698;SDS011;7439;50.804;4.602;2023-03-11T06:58:25;28.67;;;19.50;;
14698;SDS011;7439;50.804;4.602;2023-03-11T07:00:54;47.03;;;26.57;;
14698;SDS011;7439;50.804;4.602;2023-03-11T07:03:22;38.53;;;22.90;;
14698;SDS011;7439;50.804;4.602;2023-03-11T07:05:49;33.83;;;21.73;;
14698;SDS011;7439;50.804;4.602;2023-03-11T07:08:17;50.97;;;29.70;;
14698;SDS011;7439;50.804;4.602;2023-03-11T07:10:44;32.60;;;19.60;;
14698;SDS011;7439;50.804;4.602;2023-03-11T07:13:12;32.27;;;20.10;;
14698;SDS011;7439;50.804;4.602;2023-03-11T07:15:40;34.33;;;22.93;;
14698;SDS011;7439;50.804;4.602;2023-03-11T07:18:08;63.93;;;35.27;;
14698;SDS011;7439;50.804;4.602;2023-03-11T07:20:36;41.03;;;26.77;;
14698;SDS011;7439;50.804;4.602;2023-03-11T07:23:03;32.23;;;20.07;;
14698;SDS011;7439;50.804;4.602;2023-03-11T07:25:31;20.93;;;15.47;;
14698;SDS011;7439;50.804;4.602;2023-03-11T07:27:58;26.70;;;16.13;;
14698;SDS011;7439;50.804;4.602;2023-03-11T07:30:26;23.97;;;14.30;;
14698;SDS011;7439;50.804;4.602;2023-03-11T07:32:53;18.60;;;15.47;;
14698;SDS011;7439;50.804;4.602;2023-03-11T07:35:22;18.00;;;14.37;;
14698;SDS011;7439;50.804;4.602;2023-03-11T07:37:50;17.97;;;16.10;;
14698;SDS011;7439;50.804;4.602;2023-03-11T07:40:17;21.47;;;17.13;;
14698;SDS011;7439;50.804;4.602;2023-03-11T07:42:45;29.20;;;17.57;;
14698;SDS011;7439;50.804;4.602;2023-03-11T07:45:12;17.40;;;15.57;;
14698;SDS011;7439;50.804;4.602;2023-03-11T07:47:39;20.00;;;17.30;;
14698;SDS011;7439;50.804;4.602;2023-03-11T07:50:07;18.47;;;16.40;;
14698;SDS011;7439;50.804;4.602;2023-03-11T07:52:36;29.60;;;21.30;;
14698;SDS011;7439;50.804;4.602;2023-03-11T07:55:04;21.60;;;16.83;;
14698;SDS011;7439;50.804;4.602;2023-03-11T07:57:32;22.17;;;20.17;;
14698;SDS011;7439;50.804;4.602;2023-03-11T08:00:02;20.47;;;18.77;;
14698;SDS011;7439;50.804;4.602;2023-03-11T08:02:30;26.43;;;18.87;;
14698;SDS011;7439;50.804;4.602;2023-03-11T08:04:57;24.30;;;22.20;;
14698;SDS011;7439;50.804;4.602;2023-03-11T08:07:25;25.73;;;22.60;;
14698;SDS011;7439;50.804;4.602;2023-03-11T08:09:54;24.70;;;22.43;;
14698;SDS011;7439;50.804;4.602;2023-03-11T08:12:21;27.60;;;24.80;;
14698;SDS011;7439;50.804;4.602;2023-03-11T08:14:49;30.70;;;28.33;;
14698;SDS011;7439;50.804;4.602;2023-03-11T08:17:16;45.73;;;42.30;;
14698;SDS011;7439;50.804;4.602;2023-03-11T08:19:44;49.13;;;45.30;;
14698;SDS011;7439;50.804;4.602;2023-03-11T08:22:11;42.87;;;39.53;;
14698;SDS011;7439;50.804;4.602;2023-03-11T08:24:38;43.10;;;40.27;;
14698;SDS011;7439;50.804;4.602;2023-03-11T08:27:08;32.90;;;30.13;;
14698;SDS011;7439;50.804;4.602;2023-03-11T08:29:36;26.73;;;24.90;;
14698;SDS011;7439;50.804;4.602;2023-03-11T08:32:04;33.43;;;30.90;;
14698;SDS011;7439;50.804;4.602;2023-03-11T08:34:31;32.93;;;31.03;;
14698;SDS011;7439;50.804;4.602;2023-03-11T08:36:59;33.20;;;30.70;;
14698;SDS011;7439;50.804;4.602;2023-03-11T08:39:30;34.40;;;32.33;;
14698;SDS011;7439;50.804;4.602;2023-03-11T08:42:00;34.73;;;32.17;;
14698;SDS011;7439;50.804;4.602;2023-03-11T08:44:29;25.63;;;24.03;;
14698;SDS011;7439;50.804;4.602;2023-03-11T08:46:59;31.77;;;30.03;;
14698;SDS011;7439;50.804;4.602;2023-03-11T08:49:29;37.73;;;35.30;;
14698;SDS011;7439;50.804;4.602;2023-03-11T08:51:57;41.00;;;38.67;;
14698;SDS011;7439;50.804;4.602;2023-03-11T08:54:24;36.83;;;34.53;;
14698;SDS011;7439;50.804;4.602;2023-03-11T08:56:52;24.90;;;23.50;;
14698;SDS011;7439;50.804;4.602;2023-03-11T08:59:19;20.57;;;19.17;;
14698;SDS011;7439;50.804;4.602;2023-03-11T09:01:48;36.17;;;34.03;;
14698;SDS011;7439;50.804;4.602;2023-03-11T09:04:16;26.40;;;24.80;;
14698;SDS011;7439;50.804;4.602;2023-03-11T09:06:43;14.87;;;13.43;;
14698;SDS011;7439;50.804;4.602;2023-03-11T09:09:13;20.97;;;19.57;;
14698;SDS011;7439;50.804;4.602;2023-03-11T09:11:41;29.57;;;27.37;;
14698;SDS011;7439;50.804;4.602;2023-03-11T09:14:08;31.50;;;29.40;;
14698;SDS011;7439;50.804;4.602;2023-03-11T09:16:36;26.03;;;24.07;;
14698;SDS011;7439;50.804;4.602;2023-03-11T09:19:04;19.10;;;17.40;;
14698;SDS011;7439;50.804;4.602;2023-03-11T09:21:32;18.23;;;16.93;;
14698;SDS011;7439;50.804;4.602;2023-03-11T09:24:02;15.33;;;14.23;;
14698;SDS011;7439;50.804;4.602;2023-03-11T09:26:30;22.57;;;20.80;;
14698;SDS011;7439;50.804;4.602;2023-03-11T09:28:57;11.40;;;4.03;;
14698;SDS011;7439;50.804;4.602;2023-03-11T09:31:25;8.23;;;4.37;;
14698;SDS011;7439;50.804;4.602;2023-03-11T09:33:52;6.03;;;4.37;;
14698;SDS011;7439;50.804;4.602;2023-03-11T09:36:21;8.30;;;4.50;;
14698;SDS011;7439;50.804;4.602;2023-03-11T09:38:49;6.07;;;4.53;;
14698;SDS011;7439;50.804;4.602;2023-03-11T09:41:19;6.80;;;5.37;;
14698;SDS011;7439;50.804;4.602;2023-03-11T09:43:52;7.13;;;2.83;;
14698;SDS011;7439;50.804;4.602;2023-03-11T09:46:29;7.33;;;2.77;;
14698;SDS011;7439;50.804;4.602;2023-03-11T09:48:59;6.53;;;2.40;;
14698;SDS011;7439;50.804;4.602;2023-03-11T09:51:38;8.03;;;3.17;;
14698;SDS011;7439;50.804;4.602;2023-03-11T09:54:09;6.83;;;2.73;;
14698;SDS011;7439;50.804;4.602;2023-03-11T09:56:40;7.60;;;2.73;;
14698;SDS011;7439;50.804;4.602;2023-03-11T09:59:11;6.93;;;2.30;;
14698;SDS011;7439;50.804;4.602;2023-03-11T10:01:41;5.80;;;2.27;;
14698;SDS011;7439;50.804;4.602;2023-03-11T10:04:10;5.87;;;2.20;;
14698;SDS011;7439;50.804;4.602;2023-03-11T10:06:40;4.67;;;1.80;;
14698;SDS011;7439;50.804;4.602;2023-03-11T10:09:13;6.67;;;2.30;;
14698;SDS011;7439;50.804;4.602;2023-03-11T10:11:49;8.17;;;2.07;;
14698;SDS011;7439;50.804;4.602;2023-03-11T10:14:25;5.77;;;2.00;;
14698;SDS011;7439;50.804;4.602;2023-03-11T10:16:57;7.00;;;2.43;;
14698;SDS011;7439;50.804;4.602;2023-03-11T10:19:33;4.00;;;1.90;;
14698;SDS011;7439;50.804;4.602;2023-03-11T10:22:07;5.73;;;2.10;;
14698;SDS011;7439;50.804;4.602;2023-03-11T10:24:49;8.10;;;2.47;;
14698;SDS011;7439;50.804;4.602;2023-03-11T10:27:20;5.50;;;2.20;;
14698;SDS011;7439;50.804;4.602;2023-03-11T10:29:51;3.90;;;2.13;;
14698;SDS011;7439;50.804;4.602;2023-03-11T10:32:19;4.23;;;2.30;;
14698;SDS011;7439;50.804;4.602;2023-03-11T10:34:48;4.97;;;2.50;;
14698;SDS011;7439;50.804;4.602;2023-03-11T10:37:20;5.70;;;1.87;;
14698;SDS011;7439;50.804;4.602;2023-03-11T10:39:49;5.17;;;2.20;;
14698;SDS011;7439;50.804;4.602;2023-03-11T10:42:17;4.63;;;2.00;;
14698;SDS011;7439;50.804;4.602;2023-03-11T10:44:47;4.53;;;2.33;;
14698;SDS011;7439;50.804;4.602;2023-03-11T10:47:16;4.97;;;2.10;;
14698;SDS011;7439;50.804;4.602;2023-03-11T10:49:43;4.33;;;2.27;;
14698;SDS011;7439;50.804;4.602;2023-03-11T10:52:11;2.80;;;2.07;;
14698;SDS011;7439;50.804;4.602;2023-03-11T10:54:41;4.40;;;2.07;;
14698;SDS011;7439;50.804;4.602;2023-03-11T10:57:20;6.17;;;2.03;;
14698;SDS011;7439;50.804;4.602;2023-03-11T10:59:50;8.33;;;2.37;;
14698;SDS011;7439;50.804;4.602;2023-03-11T11:02:21;9.10;;;2.77;;
14698;SDS011;7439;50.804;4.602;2023-03-11T11:04:59;5.33;;;2.17;;
14698;SDS011;7439;50.804;4.602;2023-03-11T11:07:29;4.73;;;1.73;;
14698;SDS011;7439;50.804;4.602;2023-03-11T11:10:12;9.27;;;2.50;;
14698;SDS011;7439;50.804;4.602;2023-03-11T11:12:50;3.77;;;1.87;;
14698;SDS011;7439;50.804;4.602;2023-03-11T11:15:21;3.33;;;1.97;;
14698;SDS011;7439;50.804;4.602;2023-03-11T11:17:49;3.73;;;2.40;;
14698;SDS011;7439;50.804;4.602;2023-03-11T11:20:19;6.27;;;2.27;;
14698;SDS011;7439;50.804;4.602;2023-03-11T11:22:50;5.13;;;1.97;;
14698;SDS011;7439;50.804;4.602;2023-03-11T11:25:30;5.27;;;2.13;;
14698;SDS011;7439;50.804;4.602;2023-03-11T11:27:59;5.70;;;1.93;;
14698;SDS011;7439;50.804;4.602;2023-03-11T11:30:27;4.73;;;1.87;;
14698;SDS011;7439;50.804;4.602;2023-03-11T11:32:55;4.60;;;2.20;;
14698;SDS011;7439;50.804;4.602;2023-03-11T11:35:23;7.40;;;2.10;;
14698;SDS011;7439;50.804;4.602;2023-03-11T11:37:51;4.53;;;2.07;;
14698;SDS011;7439;50.804;4.602;2023-03-11T11:40:22;5.43;;;2.60;;
14698;SDS011;7439;50.804;4.602;2023-03-11T11:42:53;5.50;;;2.23;;
14698;SDS011;7439;50.804;4.602;2023-03-11T11:45:24;4.70;;;2.00;;
14698;SDS011;7439;50.804;4.602;2023-03-11T11:47:53;4.93;;;2.10;;
14698;SDS011;7439;50.804;4.602;2023-03-11T11:50:23;4.30;;;1.80;;
14698;SDS011;7439;50.804;4.602;2023-03-11T11:52:52;4.07;;;2.10;;
14698;SDS011;7439;50.804;4.602;2023-03-11T11:55:23;5.47;;;2.20;;
14698;SDS011;7439;50.804;4.602;2023-03-11T11:57:52;4.77;;;1.77;;
14698;SDS011;7439;50.804;4.602;2023-03-11T12:00:20;4.33;;;1.80;;
14698;SDS011;7439;50.804;4.602;2023-03-11T12:03:00;4.33;;;2.07;;
14698;SDS011;7439;50.804;4.602;2023-03-11T12:05:34;5.17;;;2.00;;
14698;SDS011;7439;50.804;4.602;2023-03-11T12:08:07;5.97;;;2.23;;
14698;SDS011;7439;50.804;4.602;2023-03-11T12:10:36;8.67;;;2.30;;
14698;SDS011;7439;50.804;4.602;2023-03-11T12:13:15;3.07;;;2.07;;
14698;SDS011;7439;50.804;4.602;2023-03-11T12:15:46;4.30;;;2.40;;
14698;SDS011;7439;50.804;4.602;2023-03-11T12:18:16;6.63;;;2.40;;
14698;SDS011;7439;50.804;4.602;2023-03-11T12:20:51;5.47;;;2.10;;
14698;SDS011;7439;50.804;4.602;2023-03-11T12:23:22;4.13;;;1.87;;
14698;SDS011;7439;50.804;4.602;2023-03-11T12:25:55;3.60;;;1.70;;
14698;SDS011;7439;50.804;4.602;2023-03-11T12:28:28;4.87;;;2.03;;
14698;SDS011;7439;50.804;4.602;2023-03-11T12:31:00;6.07;;;2.03;;
14698;SDS011;7439;50.804;4.602;2023-03-11T12:33:30;2.63;;;1.90;;
14698;SDS011;7439;50.804;4.602;2023-03-11T12:35:59;4.23;;;1.90;;
14698;SDS011;7439;50.804;4.602;2023-03-11T12:38:30;5.07;;;1.90;;
14698;SDS011;7439;50.804;4.602;2023-03-11T12:41:01;6.27;;;2.10;;
14698;SDS011;7439;50.804;4.602;2023-03-11T12:46:18;4.63;;;2.20;;
14698;SDS011;7439;50.804;4.602;2023-03-11T12:48:49;6.27;;;1.87;;
14698;SDS011;7439;50.804;4.602;2023-03-11T12:51:37;5.80;;;2.40;;
14698;SDS011;7439;50.804;4.602;2023-03-11T12:57:04;3.90;;;2.27;;
14698;SDS011;7439;50.804;4.602;2023-03-11T12:59:41;8.87;;;2.37;;
14698;SDS011;7439;50.804;4.602;2023-03-11T13:02:20;4.63;;;2.30;;
14698;SDS011;7439;50.804;4.602;2023-03-11T13:04:54;5.40;;;2.10;;
14698;SDS011;7439;50.804;4.602;2023-03-11T13:07:28;3.37;;;2.03;;
14698;SDS011;7439;50.804;4.602;2023-03-11T13:10:02;4.47;;;2.00;;
14698;SDS011;7439;50.804;4.602;2023-03-11T13:12:37;6.87;;;2.03;;
14698;SDS011;7439;50.804;4.602;2023-03-11T13:18:15;7.43;;;2.47;;
14698;SDS011;7439;50.804;4.602;2023-03-11T13:23:28;6.13;;;2.23;;
14698;SDS011;7439;50.804;4.602;2023-03-11T13:28:57;7.87;;;2.50;;
14698;SDS011;7439;50.804;4.602;2023-03-11T13:34:15;4.60;;;2.50;;
14698;SDS011;7439;50.804;4.602;2023-03-11T13:36:45;5.53;;;2.40;;
14698;SDS011;7439;50.804;4.602;2023-03-11T13:39:23;8.97;;;2.60;;
14698;SDS011;7439;50.804;4.602;2023-03-11T13:41:54;4.47;;;2.10;;
14698;SDS011;7439;50.804;4.602;2023-03-11T13:44:26;7.43;;;2.73;;
14698;SDS011;7439;50.804;4.602;2023-03-11T13:46:56;7.33;;;2.37;;
14698;SDS011;7439;50.804;4.602;2023-03-11T13:49:27;3.90;;;2.33;;
14698;SDS011;7439;50.804;4.602;2023-03-11T13:51:57;6.03;;;2.43;;
14698;SDS011;7439;50.804;4.602;2023-03-11T13:54:29;7.30;;;2.17;;
14698;SDS011;7439;50.804;4.602;2023-03-11T13:56:58;3.77;;;2.30;;
14698;SDS011;7439;50.804;4.602;2023-03-11T13:59:27;3.57;;;2.23;;
14698;SDS011;7439;50.804;4.602;2023-03-11T14:01:56;4.80;;;2.07;;
14698;SDS011;7439;50.804;4.602;2023-03-11T14:04:24;3.47;;;2.03;;
14698;SDS011;7439;50.804;4.602;2023-03-11T14:06:54;4.70;;;2.13;;
14698;SDS011;7439;50.804;4.602;2023-03-11T14:09:23;5.53;;;2.20;;
14698;SDS011;7439;50.804;4.602;2023-03-11T14:11:52;5.53;;;2.20;;
14698;SDS011;7439;50.804;4.602;2023-03-11T14:14:28;3.20;;;2.13;;
14698;SDS011;7439;50.804;4.602;2023-03-11T14:16:57;7.83;;;2.50;;
14698;SDS011;7439;50.804;4.602;2023-03-11T14:19:28;4.20;;;2.03;;
14698;SDS011;7439;50.804;4.602;2023-03-11T14:21:57;7.07;;;2.20;;
14698;SDS011;7439;50.804;4.602;2023-03-11T14:24:25;5.07;;;2.00;;
14698;SDS011;7439;50.804;4.602;2023-03-11T14:26:53;5.23;;;2.00;;
14698;SDS011;7439;50.804;4.602;2023-03-11T14:29:22;6.67;;;2.67;;
14698;SDS011;7439;50.804;4.602;2023-03-11T14:31:54;3.90;;;2.20;;
14698;SDS011;7439;50.804;4.602;2023-03-11T14:34:25;9.23;;;2.70;;
14698;SDS011;7439;50.804;4.602;2023-03-11T14:36:58;5.30;;;2.30;;
14698;SDS011;7439;50.804;4.602;2023-03-11T14:39:28;3.97;;;1.93;;
14698;SDS011;7439;50.804;4.602;2023-03-11T14:42:01;8.37;;;2.20;;
14698;SDS011;7439;50.804;4.602;2023-03-11T14:44:30;5.30;;;2.43;;
14698;SDS011;7439;50.804;4.602;2023-03-11T14:47:02;5.63;;;2.20;;
14698;SDS011;7439;50.804;4.602;2023-03-11T14:49:30;3.20;;;2.20;;
14698;SDS011;7439;50.804;4.602;2023-03-11T14:52:03;4.13;;;2.37;;
14698;SDS011;7439;50.804;4.602;2023-03-11T14:54:34;5.27;;;1.93;;
14698;SDS011;7439;50.804;4.602;2023-03-11T14:57:03;5.50;;;2.20;;
14698;SDS011;7439;50.804;4.602;2023-03-11T14:59:31;2.87;;;1.93;;
14698;SDS011;7439;50.804;4.602;2023-03-11T15:02:03;4.90;;;2.23;;
14698;SDS011;7439;50.804;4.602;2023-03-11T15:04:32;3.03;;;2.17;;
14698;SDS011;7439;50.804;4.602;2023-03-11T15:07:03;5.60;;;2.00;;
14698;SDS011;7439;50.804;4.602;2023-03-11T15:09:31;5.43;;;2.13;;
14698;SDS011;7439;50.804;4.602;2023-03-11T15:12:02;7.07;;;2.30;;
14698;SDS011;7439;50.804;4.602;2023-03-11T15:14:32;6.97;;;2.13;;
14698;SDS011;7439;50.804;4.602;2023-03-11T15:17:24;6.03;;;2.53;;